Time;durP1;ratioP1;P1;durP2;ratioP2;P2;SDS_P1;SDS_P2;PMS_P1;PMS_P2;Temp;Humidity;BMP_temperature;BMP_pressure;BME280_temperature;BME280_humidity;BME280_pressure;Samples;Min_cycle;Max_cycle;Signal;HPM_P1;HPM_P2
2023/02/17 00:00:30;;;;;;;20.70;18.90;;;;;;;8.15;93.86;100707.88;5038503;28;20206;-80
2023/02/17 00:02:57;;;;;;;22.10;19.57;;;;;;;8.28;93.75;100708.66;5037069;28;20235;-80
2023/02/17 00:05:23;;;;;;;21.13;19.07;;;;;;;8.17;93.97;100700.94;5037282;28;20292;-81
2023/02/17 00:07:50;;;;;;;20.70;18.80;;;;;;;8.13;95.18;100675.81;5037034;28;20206;-81
2023/02/17 00:10:17;;;;;;;22.27;20.03;;;;;;;8.26;94.62;100687.00;5037077;28;20544;-80
2023/02/17 00:12:43;;;;;;;21.50;19.37;;;;;;;8.05;95.85;100677.59;5037273;28;20252;-81
2023/02/17 00:15:10;;;;;;;22.20;19.73;;;;;;;8.22;95.31;100656.69;5036765;28;20724;-81
2023/02/17 00:17:37;;;;;;;20.03;18.13;;;;;;;8.29;94.79;100664.47;5036727;28;20206;-81
2023/02/17 00:20:05;;;;;;;21.20;19.20;;;;;;;8.21;95.31;100658.44;5036919;28;20264;-82
2023/02/17 00:22:31;;;;;;;20.13;18.43;;;;;;;8.25;95.75;100643.69;5036074;28;20676;-81
2023/02/17 00:24:58;;;;;;;20.77;18.77;;;;;;;8.32;95.79;100646.25;5037052;28;20230;-80
2023/02/17 00:27:24;;;;;;;21.40;19.40;;;;;;;8.29;96.10;100646.25;5037326;28;20263;-81
2023/02/17 00:29:50;;;;;;;20.93;18.87;;;;;;;8.37;96.20;100642.75;5037427;28;20206;-80
2023/02/17 00:32:17;;;;;;;21.17;19.37;;;;;;;8.31;96.71;100628.03;5036466;28;20228;-80
2023/02/17 00:34:45;;;;;;;20.67;18.87;;;;;;;8.38;96.31;100629.72;5035953;28;20202;-80
2023/02/17 00:37:11;;;;;;;20.47;18.53;;;;;;;8.37;96.78;100634.94;5035870;28;20206;-80
2023/02/17 00:39:37;;;;;;;20.60;18.63;;;;;;;8.39;97.09;100630.59;5037018;28;20256;-81
2023/02/17 00:42:04;;;;;;;21.37;19.17;;;;;;;8.28;97.57;100615.91;5036828;28;20202;-80
2023/02/17 00:44:30;;;;;;;20.17;17.97;;;;;;;8.35;97.37;100608.94;5037445;28;20232;-81
2023/02/17 00:46:56;;;;;;;20.33;18.43;;;;;;;8.31;97.68;100610.69;5036740;28;20221;-81
2023/02/17 00:49:25;;;;;;;19.60;17.73;;;;;;;8.31;98.31;100597.69;5036646;28;20232;-79
2023/02/17 00:51:53;;;;;;;19.73;17.77;;;;;;;8.33;98.21;100589.88;5036669;28;20205;-81
2023/02/17 00:54:19;;;;;;;18.07;16.57;;;;;;;8.35;98.50;100596.78;5037156;28;20262;-81
2023/02/17 00:56:46;;;;;;;18.40;16.90;;;;;;;8.34;98.60;100602.88;5037296;28;20291;-81
2023/02/17 00:59:13;;;;;;;17.57;15.97;;;;;;;8.36;98.91;100589.84;5037463;28;20206;-81
2023/02/17 01:01:39;;;;;;;18.00;16.50;;;;;;;8.12;100.00;100568.34;5036768;28;20205;-81
2023/02/17 01:04:06;;;;;;;18.20;16.63;;;;;;;8.16;100.00;100557.03;5036356;28;20834;-81
2023/02/17 01:06:36;;;;;;;16.70;15.37;;;;;;;8.25;100.00;100545.72;5036625;28;20229;-81
2023/02/17 01:09:05;;;;;;;17.40;15.90;;;;;;;8.22;100.00;100529.28;5036547;28;20672;-81
2023/02/17 01:11:33;;;;;;;16.07;14.67;;;;;;;8.31;100.00;100537.03;5036943;28;20225;-81
2023/02/17 01:14:00;;;;;;;15.23;13.73;;;;;;;8.41;100.00;100541.31;5036460;28;20209;-80
2023/02/17 01:16:29;;;;;;;16.03;14.73;;;;;;;8.33;100.00;100540.47;5036455;28;20222;-81
2023/02/17 01:18:56;;;;;;;15.10;13.83;;;;;;;8.37;100.00;100541.31;5036422;28;20264;-81
2023/02/17 01:21:24;;;;;;;15.33;14.03;;;;;;;8.46;100.00;100546.44;5035233;28;20202;-81
2023/02/17 01:23:52;;;;;;;14.43;13.13;;;;;;;8.46;100.00;100549.06;5034685;28;20258;-80
2023/02/17 01:26:22;;;;;;;15.03;13.73;;;;;;;8.43;100.00;100541.28;5036266;28;20295;-81
2023/02/17 01:28:50;;;;;;;15.47;14.27;;;;;;;8.35;100.00;100544.78;5037136;28;20202;-81
2023/02/17 01:31:17;;;;;;;14.47;13.17;;;;;;;8.46;100.00;100533.44;5036909;28;20225;-81
2023/02/17 01:33:43;;;;;;;15.80;14.50;;;;;;;8.49;100.00;100533.44;5037148;28;20259;-81
2023/02/17 01:36:13;;;;;;;14.60;13.30;;;;;;;8.45;100.00;100536.94;5036619;28;20225;-82
2023/02/17 01:38:40;;;;;;;15.47;14.17;;;;;;;8.44;100.00;100515.25;5036937;28;20579;-82
2023/02/17 01:41:07;;;;;;;16.10;14.80;;;;;;;8.45;100.00;100509.19;5036918;28;20202;-82
2023/02/17 01:43:36;;;;;;;15.97;14.70;;;;;;;8.48;100.00;100500.47;5036189;28;20280;-80
2023/02/17 01:46:04;;;;;;;16.13;14.73;;;;;;;8.58;100.00;100506.47;5036195;28;20226;-80
2023/02/17 01:48:34;;;;;;;16.43;15.13;;;;;;;8.59;100.00;100503.00;5036766;28;20206;-79
2023/02/17 01:51:03;;;;;;;15.33;14.07;;;;;;;8.68;100.00;100505.47;5036197;28;20229;-80
2023/02/17 01:53:35;;;;;;;16.10;14.70;;;;;;;8.62;100.00;100502.94;5036116;28;20229;-81
2023/02/17 01:56:02;;;;;;;16.47;15.07;;;;;;;8.48;100.00;100488.34;5036711;28;20226;-80
2023/02/17 01:58:30;;;;;;;15.80;14.60;;;;;;;8.51;100.00;100471.84;5036226;28;20198;-80
2023/02/17 02:01:03;;;;;;;16.53;15.00;;;;;;;8.58;100.00;100459.63;5036013;28;20205;-80
2023/02/17 02:03:32;;;;;;;17.13;15.50;;;;;;;8.54;100.00;100456.19;5036226;28;20835;-80
2023/02/17 02:06:03;;;;;;;18.23;16.47;;;;;;;8.52;100.00;100447.53;5036358;28;20230;-81
2023/02/17 02:08:35;;;;;;;17.40;15.97;;;;;;;8.47;100.00;100437.19;5036466;28;20206;-80
2023/02/17 02:11:01;;;;;;;17.80;16.30;;;;;;;8.46;100.00;100427.69;5035787;28;20206;-80
2023/02/17 02:13:28;;;;;;;17.90;16.13;;;;;;;8.51;100.00;100425.00;5036056;28;20206;-80
2023/02/17 02:16:04;;;;;;;16.63;15.27;;;;;;;8.55;100.00;100430.16;5036305;28;20230;-80
2023/02/17 02:18:43;;;;;;;18.00;16.50;;;;;;;8.44;100.00;100423.34;5035926;28;20202;-81
2023/02/17 02:21:44;;;;;;;17.40;16.00;;;;;;;8.51;100.00;100420.66;5038098;28;20194;-80
2023/02/17 02:24:33;;;;;;;16.70;15.30;;;;;;;8.54;100.00;100428.47;5039511;28;20339;-80
2023/02/17 02:27:48;;;;;;;15.43;14.23;;;;;;;8.64;100.00;100439.63;5039469;28;20234;-80
2023/02/17 02:30:50;;;;;;;15.60;14.30;;;;;;;8.71;100.00;100454.28;5039482;28;20264;-81
2023/02/17 02:33:23;;;;;;;15.03;13.90;;;;;;;8.71;100.00;100464.69;5039541;28;20209;-81
2023/02/17 02:35:57;;;;;;;14.87;13.57;;;;;;;8.72;100.00;100450.81;5039603;28;20639;-81
2023/02/17 02:38:30;;;;;;;15.67;14.37;;;;;;;8.69;100.00;100450.81;5041218;28;20301;-81
2023/02/17 02:41:02;;;;;;;16.37;15.07;;;;;;;8.59;100.00;100430.13;5039749;28;20201;-80
2023/02/17 02:43:30;;;;;;;16.33;15.03;;;;;;;8.62;100.00;100430.97;5039396;28;20201;-81
2023/02/17 02:45:56;;;;;;;16.17;14.87;;;;;;;8.65;100.00;100438.72;5039574;28;20248;-82
2023/02/17 02:48:24;;;;;;;16.50;15.20;;;;;;;8.55;100.00;100422.34;5038998;28;20268;-81
2023/02/17 02:51:04;;;;;;;16.13;14.83;;;;;;;8.71;100.00;100425.66;5038894;28;20201;-80
2023/02/17 02:53:44;;;;;;;14.60;13.50;;;;;;;8.75;100.00;100427.34;5038930;28;20697;-81
2023/02/17 02:56:22;;;;;;;15.47;14.27;;;;;;;8.75;100.00;100422.13;5038942;28;20287;-81
2023/02/17 02:59:00;;;;;;;15.40;14.10;;;;;;;8.85;100.00;100424.63;5039302;28;20198;-80
2023/02/17 03:01:32;;;;;;;15.90;14.30;;;;;;;8.81;100.00;100436.81;5040206;28;20206;-81
2023/02/17 03:04:08;;;;;;;15.07;13.87;;;;;;;8.87;100.00;100436.75;5038766;28;20202;-82
2023/02/17 03:06:40;;;;;;;15.23;14.03;;;;;;;8.82;100.00;100430.75;5039356;28;20263;-81
2023/02/17 03:09:11;;;;;;;15.43;14.23;;;;;;;8.89;100.00;100415.91;5038948;28;20195;-81
2023/02/17 03:11:38;;;;;;;14.17;13.07;;;;;;;8.98;100.00;100435.75;5038801;28;20216;-81
2023/02/17 03:14:08;;;;;;;14.37;13.27;;;;;;;8.92;100.00;100421.94;5038513;28;20280;-81
2023/02/17 03:16:36;;;;;;;14.80;13.70;;;;;;;8.93;100.00;100428.00;5038362;28;20226;-80
2023/02/17 03:19:03;;;;;;;15.17;13.97;;;;;;;8.92;100.00;100408.91;5038849;28;20202;-80
2023/02/17 03:21:38;;;;;;;14.90;13.80;;;;;;;8.94;100.00;100412.38;5038350;28;20202;-80
2023/02/17 03:24:06;;;;;;;14.83;13.73;;;;;;;8.90;100.00;100422.81;5038333;28;20240;-81
2023/02/17 03:26:32;;;;;;;14.23;13.03;;;;;;;8.91;100.00;100420.19;5037728;28;20317;-81
2023/02/17 03:28:58;;;;;;;13.53;12.53;;;;;;;8.97;100.00;100402.78;5037456;28;20780;-81
2023/02/17 03:31:25;;;;;;;14.67;13.57;;;;;;;9.00;100.00;100410.53;5036329;28;20237;-81
2023/02/17 03:33:51;;;;;;;14.60;13.50;;;;;;;9.03;100.00;100413.97;5036764;28;20256;-80
2023/02/17 03:36:19;;;;;;;14.27;13.10;;;;;;;8.97;100.00;100406.25;5037878;28;20598;-80
2023/02/17 03:38:45;;;;;;;15.47;14.23;;;;;;;8.98;100.00;100405.38;5038441;28;20198;-81
2023/02/17 03:41:12;;;;;;;14.27;13.27;;;;;;;8.94;100.00;100404.56;5038253;28;20209;-81
2023/02/17 03:43:38;;;;;;;14.37;13.27;;;;;;;9.03;100.00;100392.28;5038170;28;20201;-81
2023/02/17 03:46:04;;;;;;;14.57;13.43;;;;;;;8.98;100.00;100413.19;5037980;28;20299;-81
2023/02/17 03:48:31;;;;;;;14.47;13.37;;;;;;;8.99;100.00;100401.88;5038080;28;20236;-81
2023/02/17 03:50:57;;;;;;;14.83;13.57;;;;;;;9.04;100.00;100401.81;5037273;28;20228;-81
2023/02/17 03:53:25;;;;;;;14.77;13.67;;;;;;;9.08;100.00;100408.72;5038176;28;20206;-80
2023/02/17 03:55:51;;;;;;;14.20;13.10;;;;;;;9.09;100.00;100408.69;5038513;28;20226;-80
2023/02/17 03:58:17;;;;;;;13.47;12.57;;;;;;;9.08;100.00;100409.59;5039356;28;20205;-80
2023/02/17 04:00:44;;;;;;;14.50;13.40;;;;;;;9.05;100.00;100396.59;5039102;28;20202;-78
2023/02/17 04:03:10;;;;;;;14.50;13.40;;;;;;;9.13;100.00;100394.75;5039019;28;20206;-80
2023/02/17 04:05:37;;;;;;;13.30;12.23;;;;;;;9.17;100.00;100397.31;5038961;28;20280;-78
2023/02/17 04:08:03;;;;;;;13.53;12.53;;;;;;;9.16;100.00;100393.84;5039472;28;20222;-81
2023/02/17 04:10:31;;;;;;;14.90;13.73;;;;;;;9.14;100.00;100396.47;5039364;28;20275;-79
2023/02/17 04:12:57;;;;;;;13.33;12.30;;;;;;;9.17;100.00;100392.97;5038802;28;20255;-79
2023/02/17 04:15:23;;;;;;;13.00;12.10;;;;;;;9.15;100.00;100387.75;5038531;28;20231;-80
2023/02/17 04:17:50;;;;;;;13.67;12.67;;;;;;;9.20;100.00;100400.75;5039441;28;20249;-80
2023/02/17 04:20:16;;;;;;;13.70;12.40;;;;;;;9.20;100.00;100403.34;5039065;28;20233;-80
2023/02/17 04:22:42;;;;;;;13.37;12.37;;;;;;;9.28;100.00;100403.25;5038396;28;20198;-78
2023/02/17 04:25:09;;;;;;;13.07;11.97;;;;;;;9.22;100.00;100408.53;5038589;28;20222;-80
2023/02/17 04:27:36;;;;;;;13.37;12.37;;;;;;;9.31;100.00;100409.25;5038615;28;20272;-80
2023/02/17 04:30:03;;;;;;;13.40;12.40;;;;;;;9.34;100.00;100411.81;5038534;28;20225;-78
2023/02/17 04:32:30;;;;;;;13.00;12.00;;;;;;;9.32;100.00;100416.19;5038364;28;20256;-79
2023/02/17 04:34:56;;;;;;;13.53;12.43;;;;;;;9.26;100.00;100431.06;5038460;28;20222;-79
2023/02/17 04:37:22;;;;;;;12.37;11.47;;;;;;;9.27;100.00;100428.41;5038548;28;20252;-79
2023/02/17 04:39:49;;;;;;;12.63;11.73;;;;;;;9.33;100.00;100432.69;5038490;28;20636;-79
2023/02/17 04:42:15;;;;;;;12.97;11.93;;;;;;;9.18;100.00;100428.56;5038513;28;20275;-80
2023/02/17 04:44:43;;;;;;;13.10;12.10;;;;;;;9.20;100.00;100412.91;5038102;28;20210;-79
2023/02/17 04:47:09;;;;;;;14.03;12.93;;;;;;;9.21;100.00;100412.00;5038389;28;20229;-80
2023/02/17 04:49:35;;;;;;;13.67;12.57;;;;;;;9.29;100.00;100404.94;5037788;28;20260;-79
2023/02/17 04:52:02;;;;;;;13.53;12.43;;;;;;;9.17;100.00;100400.78;5038273;28;20198;-78
2023/02/17 04:54:28;;;;;;;13.17;12.17;;;;;;;9.25;100.00;100382.44;5037781;28;20256;-79
2023/02/17 04:56:54;;;;;;;13.03;12.03;;;;;;;9.22;100.00;100366.88;5038550;28;20228;-80
2023/02/17 04:59:21;;;;;;;12.93;12.03;;;;;;;9.29;100.00;100358.06;5037921;28;20240;-79
2023/02/17 05:01:48;;;;;;;13.13;12.13;;;;;;;9.34;100.00;100369.28;5037529;28;20229;-80
2023/02/17 05:04:15;;;;;;;12.10;11.23;;;;;;;9.32;100.00;100382.34;5037425;28;20655;-80
2023/02/17 05:06:41;;;;;;;12.03;11.13;;;;;;;9.33;100.00;100365.81;5037949;28;20272;-79
2023/02/17 05:09:07;;;;;;;13.23;12.13;;;;;;;9.30;100.00;100373.69;5037887;28;20614;-80
2023/02/17 05:11:34;;;;;;;12.60;11.70;;;;;;;9.29;100.00;100371.09;5037984;28;20256;-80
2023/02/17 05:14:00;;;;;;;12.80;11.90;;;;;;;9.33;100.00;100363.19;5037597;28;20228;-78
2023/02/17 05:16:26;;;;;;;13.73;12.43;;;;;;;9.34;100.00;100364.09;5037771;28;20227;-79
2023/02/17 05:18:54;;;;;;;12.83;11.83;;;;;;;9.31;100.00;100361.50;5036572;28;20272;-79
2023/02/17 05:21:20;;;;;;;11.90;11.00;;;;;;;9.30;100.00;100358.06;5036939;28;20230;-80
2023/02/17 05:23:47;;;;;;;11.77;10.97;;;;;;;9.37;100.00;100351.00;5037339;28;20264;-79
2023/02/17 05:26:13;;;;;;;10.70;9.90;;;;;;;9.25;100.00;100351.19;5037191;28;20218;-78
2023/02/17 05:28:40;;;;;;;10.73;9.83;;;;;;;9.36;100.00;100344.06;5037886;28;20199;-79
2023/02/17 05:31:06;;;;;;;10.83;10.03;;;;;;;9.41;100.00;100342.25;5036726;28;20228;-79
2023/02/17 05:33:33;;;;;;;10.97;10.07;;;;;;;9.31;100.00;100349.34;5037568;28;20208;-80
2023/02/17 05:36:03;;;;;;;10.37;9.57;;;;;;;9.40;100.00;100342.28;5036959;28;20708;-80
2023/02/17 05:38:30;;;;;;;11.83;10.93;;;;;;;9.43;100.00;100347.44;5037060;28;20202;-80
2023/02/17 05:40:56;;;;;;;10.73;9.83;;;;;;;9.44;100.00;100355.22;5037548;28;20207;-79
2023/02/17 05:43:23;;;;;;;11.13;10.33;;;;;;;9.46;100.00;100366.50;5036561;28;20210;-79
2023/02/17 05:45:49;;;;;;;11.40;10.60;;;;;;;9.48;100.00;100376.91;5036276;28;20640;-79
2023/02/17 05:48:16;;;;;;;11.50;10.70;;;;;;;9.58;100.00;100383.69;5037664;28;20229;-80
2023/02/17 05:50:42;;;;;;;11.17;10.27;;;;;;;9.57;100.00;100391.50;5037528;28;20248;-78
2023/02/17 05:53:10;;;;;;;11.67;10.77;;;;;;;9.63;100.00;100400.13;5036896;28;20202;-79
2023/02/17 05:55:36;;;;;;;11.23;10.33;;;;;;;9.59;100.00;100394.97;5037377;28;20629;-80
2023/02/17 05:58:03;;;;;;;13.63;12.50;;;;;;;9.56;100.00;100408.06;5041026;28;20678;-80
2023/02/17 06:00:29;;;;;;;13.03;12.03;;;;;;;9.65;100.00;100406.16;5040879;28;20268;-79
2023/02/17 06:02:55;;;;;;;13.93;12.83;;;;;;;9.61;100.00;100406.22;5040335;28;20226;-80
2023/02/17 06:05:22;;;;;;;14.23;13.00;;;;;;;9.66;100.00;100412.22;5040268;28;20272;-79
2023/02/17 06:07:48;;;;;;;14.43;13.23;;;;;;;9.61;100.00;100420.09;5041380;28;20217;-81
2023/02/17 06:10:16;;;;;;;15.00;13.60;;;;;;;9.63;100.00;100418.34;5040911;28;20237;-80
2023/02/17 06:12:43;;;;;;;14.43;13.33;;;;;;;9.59;100.00;100437.50;5040488;28;20198;-80
2023/02/17 06:15:09;;;;;;;15.43;14.00;;;;;;;9.67;100.00;100430.47;5040123;28;20605;-79
2023/02/17 06:17:36;;;;;;;14.97;13.77;;;;;;;9.62;100.00;100436.63;5041072;28;20213;-79
2023/02/17 06:20:02;;;;;;;14.87;13.67;;;;;;;9.67;100.00;100451.31;5040271;28;20202;-79
2023/02/17 06:22:28;;;;;;;14.67;13.37;;;;;;;9.76;100.00;100465.94;5039918;28;20272;-79
2023/02/17 06:24:55;;;;;;;16.30;14.90;;;;;;;9.77;100.00;100479.81;5040710;28;20222;-80
2023/02/17 06:27:23;;;;;;;16.47;15.03;;;;;;;9.79;100.00;100496.31;5039816;28;20221;-80
2023/02/17 06:29:49;;;;;;;15.10;13.90;;;;;;;9.78;100.00;100505.88;5040457;28;20207;-79
2023/02/17 06:32:16;;;;;;;15.20;13.90;;;;;;;9.81;99.91;100503.25;5038477;28;20300;-79
2023/02/17 06:34:42;;;;;;;15.30;14.10;;;;;;;9.83;99.34;100517.09;5039096;28;20232;-80
2023/02/17 06:37:08;;;;;;;15.53;14.33;;;;;;;9.76;99.15;100533.72;5041153;28;20260;-79
2023/02/17 06:39:35;;;;;;;15.57;14.37;;;;;;;9.81;98.88;100539.72;5040062;28;20229;-79
2023/02/17 06:42:01;;;;;;;14.97;13.73;;;;;;;9.79;97.14;100551.94;5039536;28;20202;-78
2023/02/17 06:44:30;;;;;;;14.73;13.63;;;;;;;9.89;95.88;100576.09;5040867;28;20710;-80
2023/02/17 06:46:56;;;;;;;15.37;14.17;;;;;;;9.93;95.79;100578.66;5040317;28;20209;-79
2023/02/17 06:49:22;;;;;;;14.73;13.63;;;;;;;9.92;96.29;100576.94;5040969;28;20302;-80
2023/02/17 06:51:49;;;;;;;14.37;13.17;;;;;;;9.89;96.18;100553.53;5042970;28;20253;-80
2023/02/17 06:54:15;;;;;;;15.23;14.03;;;;;;;9.97;96.08;100565.56;5043413;28;20271;-80
2023/02/17 06:56:41;;;;;;;15.20;14.10;;;;;;;10.02;95.71;100566.38;5043222;28;20223;-80
2023/02/17 06:59:08;;;;;;;15.30;14.17;;;;;;;10.00;95.86;100569.00;5043071;28;20202;-80
2023/02/17 07:01:36;;;;;;;16.70;15.30;;;;;;;9.98;95.60;100568.16;5042795;28;20206;-81
2023/02/17 07:04:02;;;;;;;16.40;15.00;;;;;;;9.98;95.63;100568.16;5041809;28;20202;-83
2023/02/17 07:06:28;;;;;;;16.93;15.33;;;;;;;10.02;95.67;100562.00;5042364;28;20218;-80
2023/02/17 07:08:55;;;;;;;18.53;17.03;;;;;;;10.10;95.45;100569.72;5042699;28;20226;-80
2023/02/17 07:11:22;;;;;;;18.87;17.13;;;;;;;10.08;94.99;100574.09;5042269;28;20202;-80
2023/02/17 07:13:49;;;;;;;18.20;16.60;;;;;;;10.10;95.05;100573.19;5041593;28;20229;-80
2023/02/17 07:16:15;;;;;;;18.13;16.70;;;;;;;10.08;95.09;100571.50;5041715;28;20233;-80
2023/02/17 07:18:43;;;;;;;17.70;16.20;;;;;;;10.05;95.05;100574.13;5041944;28;20202;-80
2023/02/17 07:21:10;;;;;;;17.40;15.90;;;;;;;10.08;94.88;100574.97;5041596;28;20202;-80
2023/02/17 07:23:37;;;;;;;16.17;14.83;;;;;;;10.12;95.01;100562.75;5041201;28;20202;-80
2023/02/17 07:26:05;;;;;;;17.30;15.90;;;;;;;10.13;94.84;100557.50;5040414;28;20229;-81
2023/02/17 07:28:31;;;;;;;16.13;14.73;;;;;;;10.17;94.32;100560.06;5040326;28;20222;-80
2023/02/17 07:30:58;;;;;;;15.87;14.57;;;;;;;10.18;94.53;100546.13;5039711;28;20202;-78
2023/02/17 07:33:24;;;;;;;16.57;15.00;;;;;;;10.18;94.70;100544.38;5039689;28;20577;-79
2023/02/17 07:35:52;;;;;;;14.57;13.47;;;;;;;10.25;94.57;100553.84;5039462;28;20642;-80
2023/02/17 07:38:19;;;;;;;14.63;13.53;;;;;;;10.21;94.44;100554.78;5039488;28;20243;-81
2023/02/17 07:40:45;;;;;;;14.20;12.97;;;;;;;10.23;94.27;100537.34;5031921;28;20198;-80
2023/02/17 07:43:11;;;;;;;12.60;11.70;;;;;;;10.25;94.06;100516.47;5026173;28;20199;-80
2023/02/17 07:45:38;;;;;;;13.67;12.67;;;;;;;10.28;94.09;100522.47;5026998;28;20712;-79
2023/02/17 07:48:05;;;;;;;12.50;11.50;;;;;;;10.37;93.74;100526.72;5028996;28;20226;-80
2023/02/17 07:50:31;;;;;;;13.97;12.97;;;;;;;10.26;93.71;100531.22;5033827;28;20577;-78
2023/02/17 07:52:59;;;;;;;14.47;13.27;;;;;;;10.32;93.42;100526.78;5026795;28;20250;-80
2023/02/17 07:55:25;;;;;;;12.93;11.93;;;;;;;10.33;93.46;100531.13;5026619;28;20272;-80
2023/02/17 07:57:51;;;;;;;12.13;11.07;;;;;;;10.26;93.22;100521.63;5027771;28;20194;-81
2023/02/17 08:00:19;;;;;;;12.60;11.60;;;;;;;10.34;93.15;100529.38;5028358;28;20257;-79
2023/02/17 08:02:45;;;;;;;12.07;11.13;;;;;;;10.34;92.85;100531.97;5026645;28;20197;-80
2023/02/17 08:05:11;;;;;;;11.97;11.07;;;;;;;10.33;92.78;100530.28;5026014;28;20221;-80
2023/02/17 08:07:38;;;;;;;12.33;11.53;;;;;;;10.32;92.62;100525.94;5027463;28;20225;-80
2023/02/17 08:15:35;;;;;;;11.43;10.63;;;;;;;10.46;92.94;100516.13;5027213;28;20236;-79
2023/02/17 08:18:03;;;;;;;11.60;10.70;;;;;;;10.39;93.15;100521.50;5026504;28;20191;-79
2023/02/17 08:20:30;;;;;;;12.20;11.10;;;;;;;10.44;93.19;100499.63;5028127;28;20671;-79
2023/02/17 08:22:56;;;;;;;12.00;11.00;;;;;;;10.45;92.86;100505.72;5026753;28;20609;-81
2023/02/17 08:25:24;;;;;;;12.30;11.30;;;;;;;10.46;93.19;100518.72;5028304;28;20295;-80
2023/02/17 08:27:50;;;;;;;12.87;11.77;;;;;;;10.48;93.09;100509.13;5026778;28;20246;-80
2023/02/17 08:30:17;;;;;;;11.50;10.50;;;;;;;10.48;93.29;100497.81;5026053;28;20198;-80
2023/02/17 08:32:46;;;;;;;12.27;11.37;;;;;;;10.52;93.65;100482.09;5027306;28;20260;-80
2023/02/17 08:35:12;;;;;;;11.83;10.93;;;;;;;10.53;93.59;100485.56;5027214;28;20223;-80
2023/02/17 08:37:38;;;;;;;11.50;10.63;;;;;;;10.56;93.66;100474.19;5025548;28;20913;-80
2023/02/17 08:40:06;;;;;;;11.87;10.97;;;;;;;10.59;93.58;100461.13;5026657;28;20350;-79
2023/02/17 08:42:34;;;;;;;11.77;10.90;;;;;;;10.64;93.75;100457.50;5026273;28;20218;-80
2023/02/17 08:45:00;;;;;;;11.23;10.40;;;;;;;10.58;93.93;100446.31;5017168;28;20227;-79
2023/02/17 08:47:27;;;;;;;12.47;11.47;;;;;;;10.62;94.32;100424.50;5016173;28;20257;-80
2023/02/17 08:49:53;;;;;;;11.30;10.50;;;;;;;10.68;94.49;100411.31;5027115;28;20196;-80
2023/02/17 08:52:20;;;;;;;11.27;10.40;;;;;;;10.71;94.29;100413.88;5035923;28;20207;-80
2023/02/17 08:54:46;;;;;;;12.33;11.33;;;;;;;10.73;94.52;100402.50;5036510;28;20248;-79
2023/02/17 08:57:13;;;;;;;12.23;11.33;;;;;;;10.73;94.31;100414.72;5033584;28;20191;-79
2023/02/17 08:59:40;;;;;;;13.30;12.30;;;;;;;10.78;94.17;100412.00;5026689;28;20518;-81
2023/02/17 09:02:07;;;;;;;11.10;10.30;;;;;;;10.80;94.46;100405.00;5025094;28;20254;-80
2023/02/17 09:04:33;;;;;;;10.90;10.10;;;;;;;10.85;94.38;100397.94;5026492;28;20220;-79
2023/02/17 09:07:00;;;;;;;11.27;10.47;;;;;;;10.87;94.29;100410.06;5028864;28;20191;-79
2023/02/17 09:09:27;;;;;;;10.97;10.17;;;;;;;10.82;94.68;100392.75;5035947;28;20285;-80
2023/02/17 09:11:54;;;;;;;10.47;9.77;;;;;;;10.87;94.54;100378.72;5033535;28;20263;-80
2023/02/17 09:14:22;;;;;;;10.70;9.90;;;;;;;10.90;95.30;100373.44;5033084;28;20202;-80
2023/02/17 09:16:50;;;;;;;11.40;10.60;;;;;;;10.85;95.75;100348.31;5022871;28;20433;-80
2023/02/17 09:19:17;;;;;;;10.37;9.67;;;;;;;10.96;95.84;100333.28;5031082;28;20204;-80
2023/02/17 09:21:43;;;;;;;9.97;9.27;;;;;;;10.96;95.42;100346.34;5035850;28;20202;-79
2023/02/17 09:24:10;;;;;;;10.30;9.30;;;;;;;11.01;95.21;100338.41;5016702;28;20199;-80
2023/02/17 09:26:36;;;;;;;9.97;9.10;;;;;;;11.03;95.10;100349.66;5033505;28;20233;-80
2023/02/17 09:29:03;;;;;;;9.83;8.90;;;;;;;11.14;95.15;100332.00;5037659;28;20227;-79
2023/02/17 09:31:30;;;;;;;9.47;8.77;;;;;;;11.15;95.30;100343.31;5040781;28;20202;-80
2023/02/17 09:33:58;;;;;;;9.30;8.60;;;;;;;11.13;95.06;100352.03;5040876;28;20209;-80
2023/02/17 09:36:27;;;;;;;9.23;8.30;;;;;;;11.13;94.92;100351.19;5040404;28;20228;-79
2023/02/17 09:38:54;;;;;;;9.27;8.57;;;;;;;11.03;95.91;100358.34;5040217;28;20666;-80
2023/02/17 09:41:24;;;;;;;9.53;8.63;;;;;;;11.15;95.35;100370.28;5041157;28;20263;-80
2023/02/17 09:43:51;;;;;;;8.90;8.20;;;;;;;11.11;96.02;100351.19;5040699;28;20272;-79
2023/02/17 09:46:22;;;;;;;9.33;8.67;;;;;;;10.96;96.67;100332.41;5040158;28;20229;-80
2023/02/17 09:48:50;;;;;;;9.90;9.10;;;;;;;11.12;96.62;100329.44;5040679;28;20301;-79
2023/02/17 09:51:26;;;;;;;9.87;9.17;;;;;;;11.16;96.54;100326.72;5042741;28;20259;-80
2023/02/17 09:54:02;;;;;;;9.73;8.83;;;;;;;11.09;96.37;100310.34;5030985;28;20708;-80
2023/02/17 09:56:34;;;;;;;8.90;8.20;;;;;;;11.16;97.29;100311.06;5025381;28;20268;-80
2023/02/17 09:59:04;;;;;;;9.20;8.40;;;;;;;11.15;97.70;100291.91;5031940;28;20201;-79
2023/02/17 10:01:32;;;;;;;9.50;8.87;;;;;;;11.18;97.75;100288.34;5024310;28;20206;-81
2023/02/17 10:04:05;;;;;;;9.03;8.43;;;;;;;11.19;97.96;100306.63;5029153;28;20205;-80
2023/02/17 10:06:35;;;;;;;10.43;9.63;;;;;;;11.14;98.26;100308.50;5024569;28;20333;-81
2023/02/17 10:09:07;;;;;;;10.17;9.47;;;;;;;11.06;99.15;100302.56;5021148;28;20685;-80
2023/02/17 10:11:37;;;;;;;10.43;9.57;;;;;;;10.95;100.00;100268.88;5024864;28;20202;-80
2023/02/17 10:14:09;;;;;;;11.00;10.20;;;;;;;11.00;100.00;100260.91;5028848;28;20199;-79
2023/02/17 10:16:41;;;;;;;10.73;9.93;;;;;;;10.96;100.00;100244.50;5023341;28;20238;-79
2023/02/17 10:19:14;;;;;;;10.57;9.73;;;;;;;11.05;100.00;100248.63;5024073;28;20207;-80
2023/02/17 10:21:45;;;;;;;11.63;10.73;;;;;;;11.03;100.00;100259.09;5030633;28;20676;-79
2023/02/17 10:24:12;;;;;;;12.20;11.10;;;;;;;10.95;100.00;100252.34;5038555;28;20206;-80
2023/02/17 10:27:12;;;;;;;12.60;11.70;;;;;;;11.04;100.00;100245.16;5038824;28;20662;-79
2023/02/17 10:29:50;;;;;;;11.63;10.73;;;;;;;11.05;100.00;100232.94;5038449;28;20275;-80
2023/02/17 10:32:22;;;;;;;11.53;10.63;;;;;;;11.08;100.00;100220.69;5037435;28;20206;-80
2023/02/17 10:35:03;;;;;;;12.10;11.20;;;;;;;11.06;100.00;100227.69;5037242;28;20618;-80
2023/02/17 10:37:39;;;;;;;11.57;10.70;;;;;;;11.07;100.00;100203.28;5037698;28;20206;-81
2023/02/17 10:40:20;;;;;;;12.40;11.40;;;;;;;11.00;100.00;100200.84;5038327;28;20240;-80
2023/02/17 10:42:47;;;;;;;12.27;11.27;;;;;;;11.08;100.00;100184.13;5036822;28;20202;-78
2023/02/17 10:45:21;;;;;;;12.13;11.13;;;;;;;11.15;100.00;100186.56;5038163;28;20765;-80
2023/02/17 10:47:47;;;;;;;11.90;10.97;;;;;;;11.17;100.00;100203.06;5038296;28;20215;-80
2023/02/17 10:50:19;;;;;;;12.87;11.87;;;;;;;11.29;100.00;100185.28;5037475;28;20222;-79
2023/02/17 10:52:48;;;;;;;11.43;10.43;;;;;;;11.26;100.00;100198.47;5036988;28;20281;-79
2023/02/17 10:55:22;;;;;;;11.70;10.80;;;;;;;11.36;100.00;100180.78;5037188;28;20225;-79
2023/02/17 10:57:53;;;;;;;11.00;10.13;;;;;;;11.42;100.00;100196.31;5037700;28;20602;-80
2023/02/17 11:00:20;;;;;;;11.50;10.70;;;;;;;11.43;100.00;100184.09;5037091;28;20201;-80
2023/02/17 11:02:49;;;;;;;11.00;10.13;;;;;;;11.42;99.83;100177.16;5037119;28;20205;-79
2023/02/17 11:05:24;;;;;;;10.87;10.03;;;;;;;11.47;99.01;100180.50;5037317;28;20230;-80
2023/02/17 11:07:58;;;;;;;11.53;10.73;;;;;;;11.44;99.12;100194.50;5038209;28;20234;-80
2023/02/17 11:10:28;;;;;;;11.77;10.73;;;;;;;11.48;98.77;100174.38;5036920;28;20229;-79
2023/02/17 11:12:57;;;;;;;12.83;11.83;;;;;;;11.65;98.41;100173.91;5037675;28;20199;-78
2023/02/17 11:15:26;;;;;;;12.07;11.07;;;;;;;11.68;97.68;100194.75;5037086;28;20732;-80
2023/02/17 11:17:54;;;;;;;11.00;10.10;;;;;;;11.73;96.96;100192.84;5037871;28;20615;-79
2023/02/17 11:20:33;;;;;;;10.23;9.43;;;;;;;11.75;96.50;100226.81;5038673;28;20212;-80
2023/02/17 11:23:04;;;;;;;10.57;9.83;;;;;;;11.80;96.79;100222.31;5036124;28;20234;-79